Time;durP1;ratioP1;P1;durP2;ratioP2;P2;SDS_P1;SDS_P2;PMS_P1;PMS_P2;Temp;Humidity;BMP_temperature;BMP_pressure;BME280_temperature;BME280_humidity;BME280_pressure;Samples;Min_cycle;Max_cycle;Signal;HPM_P1;HPM_P2
2023/04/27 00:01:14;;;;;;;9.40;4.00;;;;;;;6.20;71.69;101201.55;109326;1253;59173;-70
2023/04/27 00:03:41;;;;;;;6.60;3.40;;;;;;;6.17;71.75;101198.86;109330;1253;59760;-70
2023/04/27 00:06:08;;;;;;;8.40;4.10;;;;;;;6.18;72.01;101199.16;109067;1254;74671;-70
2023/04/27 00:08:35;;;;;;;7.70;4.00;;;;;;;6.19;71.97;101196.52;109297;1253;69290;-70
2023/04/27 00:11:02;;;;;;;8.00;3.80;;;;;;;6.22;71.87;101200.30;109315;1253;71561;-70
2023/04/27 00:13:29;;;;;;;7.20;3.70;;;;;;;6.25;71.92;101197.60;109209;1253;60490;-70
2023/04/27 00:15:56;;;;;;;7.80;4.10;;;;;;;6.25;71.98;101196.23;109041;1253;58953;-70
2023/04/27 00:18:23;;;;;;;8.00;4.20;;;;;;;6.25;71.88;101192.15;109362;1253;73782;-70
2023/04/27 00:20:50;;;;;;;7.50;3.80;;;;;;;6.24;71.95;101194.20;109329;1252;70952;-70
2023/04/27 00:23:16;;;;;;;7.30;3.70;;;;;;;6.22;71.96;101192.41;109292;1253;71533;-70
2023/04/27 00:25:43;;;;;;;7.80;4.20;;;;;;;6.20;72.09;101191.95;109139;1253;59906;-70
2023/04/27 00:28:10;;;;;;;7.30;3.90;;;;;;;6.19;72.44;101190.63;108945;1252;59969;-70
2023/04/27 00:30:37;;;;;;;6.20;3.80;;;;;;;6.16;72.31;101190.84;109183;1254;73877;-70
2023/04/27 00:33:03;;;;;;;7.20;3.70;;;;;;;6.15;72.12;101192.19;109198;1253;71565;-70
2023/04/27 00:35:32;;;;;;;7.30;4.00;;;;;;;6.12;72.13;101192.40;109288;1253;71730;-70
2023/04/27 00:37:59;;;;;;;8.30;3.50;;;;;;;6.10;71.90;101191.02;109151;1254;60747;-70
2023/04/27 00:40:25;;;;;;;7.30;3.70;;;;;;;6.09;71.74;101191.23;109325;1253;59051;-70
2023/04/27 00:42:52;;;;;;;7.90;3.90;;;;;;;6.08;72.01;101197.16;109282;1254;75248;-70
2023/04/27 00:45:19;;;;;;;7.80;3.80;;;;;;;6.06;72.21;101196.13;109156;1253;72285;-70
2023/04/27 00:47:46;;;;;;;6.60;3.70;;;;;;;6.04;72.00;101196.48;109279;1253;72830;-70
2023/04/27 00:50:13;;;;;;;7.40;3.60;;;;;;;6.05;72.04;101199.04;109210;1253;60212;-70
2023/04/27 00:52:40;;;;;;;8.30;4.00;;;;;;;6.03;72.05;101198.45;109198;1253;59138;-70
2023/04/27 00:55:08;;;;;;;6.70;3.40;;;;;;;6.03;72.05;101199.30;109201;1254;73639;-70
2023/04/27 00:57:34;;;;;;;9.90;3.80;;;;;;;6.04;72.25;101198.87;109179;1257;69949;-70
2023/04/27 01:00:03;;;;;;;6.50;3.50;;;;;;;6.05;72.24;101196.92;109301;1254;72719;-70
2023/04/27 01:02:30;;;;;;;9.80;3.90;;;;;;;6.06;72.08;101199.29;109295;1253;60119;-70
2023/04/27 01:04:57;;;;;;;6.60;4.00;;;;;;;6.06;72.16;101200.13;109192;1252;59624;-69
2023/04/27 01:07:25;;;;;;;9.30;4.10;;;;;;;6.06;72.52;101200.15;109312;1253;75500;-69
2023/04/27 01:09:52;;;;;;;6.40;3.90;;;;;;;6.06;72.27;101203.11;109168;1255;69893;-70
2023/04/27 01:12:18;;;;;;;9.50;4.30;;;;;;;6.05;72.43;101208.32;109306;1253;72492;-69
2023/04/27 01:14:45;;;;;;;10.10;4.40;;;;;;;6.01;72.68;101206.69;109240;1253;59958;-69
2023/04/27 01:17:13;;;;;;;9.90;4.60;;;;;;;5.99;72.64;101204.98;109093;1253;58959;-69
2023/04/27 01:19:39;;;;;;;11.90;4.90;;;;;;;5.95;72.90;101204.75;109036;1253;73280;-69
2023/04/27 01:22:06;;;;;;;8.60;4.90;;;;;;;5.89;73.49;101209.30;109160;1253;70586;-69
2023/04/27 01:24:33;;;;;;;8.70;4.10;;;;;;;5.86;73.52;101210.27;109195;1253;71828;-69
2023/04/27 01:27:00;;;;;;;8.70;4.70;;;;;;;5.82;73.63;101210.77;109315;1254;61208;-69
2023/04/27 01:29:27;;;;;;;10.10;4.80;;;;;;;5.78;74.03;101207.65;109278;1252;59818;-69
2023/04/27 01:31:53;;;;;;;8.70;4.30;;;;;;;5.74;73.89;101212.47;109050;1254;73910;-69
2023/04/27 01:34:20;;;;;;;9.80;4.60;;;;;;;5.69;74.22;101211.69;109296;1253;71320;-69
2023/04/27 01:36:47;;;;;;;9.90;4.70;;;;;;;5.62;74.21;101214.02;109180;1254;71301;-69
2023/04/27 01:39:15;;;;;;;9.40;4.60;;;;;;;5.55;74.70;101223.04;109189;1253;60906;-69
2023/04/27 01:41:41;;;;;;;11.00;5.00;;;;;;;5.48;75.08;101223.29;109229;1254;59721;-70
2023/04/27 01:44:09;;;;;;;10.30;5.00;;;;;;;5.42;75.44;101229.30;109147;1254;73724;-70
2023/04/27 01:46:35;;;;;;;9.00;4.80;;;;;;;5.38;75.49;101233.45;109236;1253;69101;-69
2023/04/27 01:49:02;;;;;;;9.90;4.80;;;;;;;5.33;75.65;101235.83;109167;1253;71754;-69
2023/04/27 01:51:29;;;;;;;9.20;4.60;;;;;;;5.31;75.72;101241.38;109022;1253;62212;-70
2023/04/27 01:53:56;;;;;;;8.80;5.10;;;;;;;5.28;76.21;101245.81;109258;1253;59212;-70
2023/04/27 01:56:23;;;;;;;9.80;4.90;;;;;;;5.26;76.00;101249.15;109223;1255;75365;-70
2023/04/27 01:58:52;;;;;;;10.50;5.20;;;;;;;5.23;76.57;101260.51;109190;1254;69650;-70
2023/04/27 02:01:18;;;;;;;10.10;5.00;;;;;;;5.18;76.75;101259.12;109073;1253;72545;-69
2023/04/27 02:03:46;;;;;;;8.80;5.40;;;;;;;5.14;77.25;101265.73;109184;1254;59094;-69
2023/04/27 02:06:14;;;;;;;11.10;5.20;;;;;;;5.08;77.51;101270.80;109130;1253;60171;-69
2023/04/27 02:08:41;;;;;;;9.80;5.10;;;;;;;5.05;77.54;101270.17;108965;1253;73485;-69
2023/04/27 02:11:08;;;;;;;11.60;5.10;;;;;;;5.03;77.45;101278.55;109198;1254;69711;-69
2023/04/27 02:13:35;;;;;;;10.40;5.20;;;;;;;4.99;77.57;101281.73;109076;1252;71987;-68
2023/04/27 02:16:03;;;;;;;10.50;5.10;;;;;;;4.94;77.99;101281.42;109017;1253;62271;-70
2023/04/27 02:18:34;;;;;;;9.00;4.80;;;;;;;4.88;77.84;101283.27;109253;1254;59728;-69
2023/04/27 02:21:07;;;;;;;9.60;5.40;;;;;;;4.84;77.84;101285.66;109113;1254;75725;-69
2023/04/27 02:23:34;;;;;;;10.60;4.90;;;;;;;4.80;77.99;101289.02;109097;1258;69771;-69
2023/04/27 02:26:01;;;;;;;10.10;4.90;;;;;;;4.76;78.04;101289.53;109145;1253;74268;-69
2023/04/27 02:28:28;;;;;;;12.60;5.40;;;;;;;4.69;78.25;101289.86;109020;1255;61003;-69
2023/04/27 02:30:55;;;;;;;9.40;5.20;;;;;;;4.62;78.28;101291.80;109200;1253;59369;-69
2023/04/27 02:33:21;;;;;;;14.10;5.40;;;;;;;4.57;78.31;101292.39;109264;1253;73155;-69
2023/04/27 02:35:48;;;;;;;10.30;4.70;;;;;;;4.52;78.63;101288.59;108998;1253;343067;-69
2023/04/27 02:38:15;;;;;;;10.40;4.70;;;;;;;4.44;79.35;101288.47;109161;1254;72722;-69
2023/04/27 02:40:42;;;;;;;9.50;4.80;;;;;;;4.39;79.36;101287.66;109139;1253;59665;-69
2023/04/27 02:43:09;;;;;;;11.20;5.00;;;;;;;4.33;79.55;101288.50;109152;1253;60032;-69
2023/04/27 02:45:37;;;;;;;8.20;4.20;;;;;;;4.28;79.54;101289.08;109285;1254;74756;-69
2023/04/27 02:48:04;;;;;;;10.20;5.60;;;;;;;4.20;79.86;101286.89;109286;1256;71191;-69
2023/04/27 02:50:31;;;;;;;10.30;4.50;;;;;;;4.14;79.89;101285.97;109028;1260;71940;-69
2023/04/27 02:52:58;;;;;;;10.40;4.90;;;;;;;4.08;80.22;101283.55;109160;1252;59621;-70
2023/04/27 02:55:26;;;;;;;9.60;5.30;;;;;;;4.03;80.38;101280.30;109196;1258;60398;-71
2023/04/27 02:57:53;;;;;;;8.30;4.50;;;;;;;4.00;80.24;101281.26;109322;1253;73490;-69
2023/04/27 03:00:20;;;;;;;8.30;4.70;;;;;;;3.95;80.38;101286.52;109208;1254;69963;-69
2023/04/27 03:02:46;;;;;;;8.50;4.30;;;;;;;3.91;80.50;101282.95;109174;1253;70956;-69
2023/04/27 03:05:13;;;;;;;11.50;5.00;;;;;;;3.87;80.70;101283.29;109302;1253;60112;-70
2023/04/27 03:07:40;;;;;;;9.90;5.00;;;;;;;3.83;80.67;101281.83;109355;1253;58849;-69
2023/04/27 03:10:07;;;;;;;10.80;4.90;;;;;;;3.79;80.70;101283.70;109341;1253;73551;-69
2023/04/27 03:12:34;;;;;;;11.30;5.00;;;;;;;3.76;80.63;101283.39;109128;1254;70075;-70
2023/04/27 03:15:01;;;;;;;8.80;5.00;;;;;;;3.74;80.73;101284.33;109320;1252;71509;-71
2023/04/27 03:17:28;;;;;;;11.00;5.00;;;;;;;3.71;80.75;101282.27;109216;1253;59730;-70
2023/04/27 03:19:55;;;;;;;9.00;4.70;;;;;;;3.68;80.72;101283.27;109120;1253;59117;-69
2023/04/27 03:22:22;;;;;;;9.90;4.50;;;;;;;3.66;80.90;101289.40;109185;1254;73547;-68
2023/04/27 03:24:49;;;;;;;8.20;4.90;;;;;;;3.65;80.77;101285.30;109055;1253;69968;-69
2023/04/27 03:27:16;;;;;;;9.00;4.70;;;;;;;3.63;80.67;101288.02;109190;1254;71887;-69
2023/04/27 03:29:43;;;;;;;9.80;4.50;;;;;;;3.61;80.83;101288.23;109306;1254;61184;-70
2023/04/27 03:32:09;;;;;;;10.90;5.80;;;;;;;3.59;80.98;101289.55;109328;1253;60657;-70
2023/04/27 03:34:36;;;;;;;10.20;5.20;;;;;;;3.57;81.17;101291.34;109169;1254;74670;-69
2023/04/27 03:37:03;;;;;;;9.60;4.80;;;;;;;3.55;81.17;101288.86;109032;1253;71299;-70
2023/04/27 03:39:30;;;;;;;10.30;5.40;;;;;;;3.54;80.94;101292.62;109297;1253;73543;-69
2023/04/27 03:41:58;;;;;;;9.60;4.90;;;;;;;3.54;81.08;101292.63;109143;1254;59447;-70
2023/04/27 03:44:24;;;;;;;10.10;5.20;;;;;;;3.54;81.01;101299.22;109172;1252;60483;-70
2023/04/27 03:46:51;;;;;;;10.10;5.00;;;;;;;3.54;81.07;101303.44;109335;1253;74497;-70
2023/04/27 03:49:18;;;;;;;10.90;4.90;;;;;;;3.53;81.00;101305.94;109376;1253;70085;-70
2023/04/27 03:51:45;;;;;;;12.20;5.30;;;;;;;3.50;80.87;101307.55;109277;1254;72349;-70
2023/04/27 03:54:12;;;;;;;10.90;5.00;;;;;;;3.48;81.02;101304.41;109273;1253;61488;-70
2023/04/27 03:56:39;;;;;;;13.80;5.70;;;;;;;3.45;81.19;101308.82;109151;1253;59506;-70
2023/04/27 03:59:06;;;;;;;10.30;5.30;;;;;;;3.41;81.40;101309.48;109133;1258;73568;-69
2023/04/27 04:01:33;;;;;;;10.50;5.40;;;;;;;3.37;81.36;101309.06;109342;1254;68862;-69
2023/04/27 04:04:00;;;;;;;12.40;5.10;;;;;;;3.33;81.50;101308.82;109152;1257;72911;-70
2023/04/27 04:06:27;;;;;;;11.10;5.30;;;;;;;3.31;81.73;101309.35;109168;1255;60536;-69
2023/04/27 04:08:54;;;;;;;12.20;5.30;;;;;;;3.29;81.91;101311.74;109274;1256;60066;-70
2023/04/27 04:11:21;;;;;;;10.80;5.20;;;;;;;3.27;82.03;101317.16;109348;1253;74493;-69
2023/04/27 04:13:48;;;;;;;9.60;5.20;;;;;;;3.23;81.98;101311.27;109130;1254;70036;-69
2023/04/27 04:16:15;;;;;;;12.70;5.60;;;;;;;3.22;82.02;101310.47;109290;1254;74652;-70
2023/04/27 04:18:42;;;;;;;13.30;6.00;;;;;;;3.22;82.35;101309.96;109155;1253;59710;-70
2023/04/27 04:21:10;;;;;;;10.80;5.50;;;;;;;3.20;82.34;101314.82;109362;1254;59317;-69
2023/04/27 04:23:37;;;;;;;12.60;5.90;;;;;;;3.21;82.53;101317.39;109166;1254;74560;-70
2023/04/27 04:26:04;;;;;;;13.10;5.80;;;;;;;3.19;82.70;101322.44;109281;1256;70035;-69
2023/04/27 04:28:31;;;;;;;14.70;5.90;;;;;;;3.17;82.88;101324.10;109310;1254;71490;-69
2023/04/27 04:31:00;;;;;;;13.00;5.60;;;;;;;3.18;82.69;101325.98;109258;1253;60901;-69
2023/04/27 04:33:27;;;;;;;11.50;5.40;;;;;;;3.18;82.93;101328.41;109170;1253;59807;-69
2023/04/27 04:35:54;;;;;;;14.80;5.30;;;;;;;3.18;82.95;101325.66;109299;1253;74491;-69
2023/04/27 04:38:22;;;;;;;14.40;6.00;;;;;;;3.18;83.05;101327.21;109337;1256;70370;-69
2023/04/27 04:40:49;;;;;;;14.20;6.20;;;;;;;3.19;83.14;101327.64;109313;1253;72343;-69
2023/04/27 04:43:16;;;;;;;13.00;5.80;;;;;;;3.20;83.27;101325.50;109329;1254;59717;-70
2023/04/27 04:45:43;;;;;;;14.10;6.30;;;;;;;3.26;83.76;101325.02;109241;1253;60371;-70
2023/04/27 04:48:10;;;;;;;12.40;6.00;;;;;;;3.35;83.76;101328.48;109328;1253;74610;-71
2023/04/27 04:50:38;;;;;;;14.90;6.30;;;;;;;3.43;83.64;101330.13;109337;1254;71279;-71
2023/04/27 04:53:05;;;;;;;15.30;5.70;;;;;;;3.52;83.43;101331.55;109207;1254;73233;-71
2023/04/27 04:55:32;;;;;;;14.90;5.40;;;;;;;3.61;83.55;101325.66;109172;1255;59787;-71
2023/04/27 04:57:59;;;;;;;14.30;6.20;;;;;;;3.67;83.14;101327.27;109136;1254;59041;-71
2023/04/27 05:00:26;;;;;;;11.90;6.00;;;;;;;3.74;83.05;101326.61;109317;1253;73805;-71
2023/04/27 05:02:53;;;;;;;12.00;6.20;;;;;;;3.79;82.87;101332.16;109334;1256;71564;-71
2023/04/27 05:05:20;;;;;;;14.10;5.50;;;;;;;3.85;82.74;101329.48;109224;1254;72919;-71
2023/04/27 05:07:46;;;;;;;10.00;5.50;;;;;;;3.92;82.93;101332.63;109177;1254;61197;-72
2023/04/27 05:10:13;;;;;;;11.20;5.30;;;;;;;3.99;82.59;101333.66;109285;1254;59055;-72
2023/04/27 05:12:40;;;;;;;10.90;5.60;;;;;;;4.05;82.48;101335.66;109366;1256;74378;-72
2023/04/27 05:15:07;;;;;;;12.60;5.60;;;;;;;4.11;82.12;101338.67;109193;1254;69659;-72
2023/04/27 05:17:34;;;;;;;11.10;5.10;;;;;;;4.16;82.21;101342.70;109197;1254;70557;-71
2023/04/27 05:20:03;;;;;;;11.70;5.30;;;;;;;4.24;82.08;101343.51;109196;1254;59871;-71
2023/04/27 05:22:30;;;;;;;11.50;5.40;;;;;;;4.32;81.98;101343.42;109233;1255;59233;-71
2023/04/27 05:24:57;;;;;;;10.70;5.40;;;;;;;4.38;81.95;101345.52;109336;1254;74805;-72
2023/04/27 05:27:24;;;;;;;11.60;5.00;;;;;;;4.44;81.79;101343.63;109302;1254;69887;-71
2023/04/27 05:29:51;;;;;;;11.90;5.50;;;;;;;4.53;82.04;101347.54;109335;1253;70438;-71
2023/04/27 05:32:17;;;;;;;10.60;5.00;;;;;;;4.63;81.78;101349.17;109130;1254;59947;-71
2023/04/27 05:34:45;;;;;;;17.20;5.70;;;;;;;4.72;81.47;101348.70;109364;1253;59428;-71
2023/04/27 05:37:14;;;;;;;8.80;4.60;;;;;;;4.80;80.66;101349.60;109248;1254;73353;-72
2023/04/27 05:39:41;;;;;;;12.50;5.00;;;;;;;4.86;80.41;101346.33;109379;1253;71812;-71
2023/04/27 05:42:08;;;;;;;7.90;4.50;;;;;;;4.94;80.20;101348.67;109356;1254;59249;-71
2023/04/27 05:44:35;;;;;;;9.80;4.50;;;;;;;5.02;79.34;101355.80;109271;1253;60161;-71
2023/04/27 05:47:01;;;;;;;9.70;4.90;;;;;;;5.06;78.85;101356.47;109185;1254;59113;-73
2023/04/27 05:49:28;;;;;;;8.00;4.60;;;;;;;5.14;78.69;101363.42;109312;1255;74333;-72
2023/04/27 05:51:55;;;;;;;9.80;4.90;;;;;;;5.22;78.34;101369.83;109210;1255;70137;-73
2023/04/27 05:54:21;;;;;;;11.70;5.10;;;;;;;5.28;77.72;101373.52;109333;1254;72417;-72
2023/04/27 05:56:49;;;;;;;12.40;4.80;;;;;;;5.36;77.36;101372.39;109350;1254;59046;-73
2023/04/27 05:59:15;;;;;;;12.10;5.50;;;;;;;5.41;77.00;101370.70;109327;1254;58956;-72
2023/04/27 06:01:42;;;;;;;10.50;5.10;;;;;;;5.49;76.58;101373.19;109171;1254;74382;-73
2023/04/27 06:04:09;;;;;;;9.30;5.00;;;;;;;5.57;76.37;101375.90;109414;1254;59453;-71
2023/04/27 06:06:36;;;;;;;14.30;5.50;;;;;;;5.60;75.55;101378.24;109201;1252;71108;-73
2023/04/27 06:09:03;;;;;;;15.40;6.30;;;;;;;5.68;75.68;101379.21;109226;1254;62154;-72
2023/04/27 06:11:30;;;;;;;11.80;5.90;;;;;;;5.77;75.11;101380.08;109262;1253;60529;-72
2023/04/27 06:13:57;;;;;;;12.80;5.50;;;;;;;5.84;74.51;101380.02;109255;1253;74663;-72
2023/04/27 06:16:23;;;;;;;16.50;5.00;;;;;;;5.93;74.16;101374.84;109255;1254;71160;-72
2023/04/27 06:18:50;;;;;;;10.90;4.40;;;;;;;6.05;73.76;101373.15;109334;1252;72586;-72
2023/04/27 06:21:17;;;;;;;8.50;4.10;;;;;;;6.16;72.98;101371.96;109233;1254;59817;-72
2023/04/27 06:23:44;;;;;;;10.50;3.70;;;;;;;6.21;72.05;101377.86;109372;1253;58983;-72
2023/04/27 06:26:11;;;;;;;10.80;4.30;;;;;;;6.23;71.55;101385.20;109225;1254;74413;-72
2023/04/27 06:28:38;;;;;;;13.70;4.60;;;;;;;6.34;71.56;101389.77;109406;1253;69968;-72
2023/04/27 06:31:05;;;;;;;10.90;4.00;;;;;;;6.42;71.15;101397.48;109054;1253;70535;-72
2023/04/27 06:33:32;;;;;;;8.90;3.90;;;;;;;6.48;70.66;101396.73;109344;1254;60001;-72
2023/04/27 06:36:00;;;;;;;9.10;3.80;;;;;;;6.59;70.64;101396.90;109403;1254;59029;-72
2023/04/27 06:38:28;;;;;;;8.90;3.70;;;;;;;6.60;69.35;101396.65;109357;1254;73709;-72
2023/04/27 06:40:55;;;;;;;10.50;3.80;;;;;;;6.71;69.63;101393.98;109139;1253;70871;-72
2023/04/27 06:43:21;;;;;;;10.40;3.90;;;;;;;6.81;69.58;101389.60;109355;1254;72636;-72
2023/04/27 06:45:48;;;;;;;10.70;4.20;;;;;;;6.94;69.13;101393.14;109377;1253;61193;-72
2023/04/27 06:48:16;;;;;;;8.00;3.10;;;;;;;7.04;68.11;101398.08;109356;1252;60156;-72
2023/04/27 06:50:42;;;;;;;7.40;2.50;;;;;;;7.13;67.57;101399.64;109276;1253;73412;-72
2023/04/27 06:53:10;;;;;;;7.60;2.40;;;;;;;7.21;66.63;101402.06;109198;1253;70938;-72
2023/04/27 06:55:37;;;;;;;8.60;2.80;;;;;;;7.26;66.28;101405.27;109319;1254;71006;-72
2023/04/27 06:58:05;;;;;;;10.20;3.20;;;;;;;7.39;66.03;101406.80;109358;1254;59082;-71
2023/04/27 07:00:32;;;;;;;8.80;3.00;;;;;;;7.49;65.58;101401.70;109337;1254;59041;-72
2023/04/27 07:02:58;;;;;;;7.60;2.60;;;;;;;7.57;64.92;101407.30;109262;1254;73140;-72
2023/04/27 07:05:26;;;;;;;12.30;3.00;;;;;;;7.64;64.64;101408.77;109406;1254;69958;-72
2023/04/27 07:07:52;;;;;;;8.50;2.90;;;;;;;7.72;64.02;101411.78;109348;1254;72719;-71
2023/04/27 07:10:20;;;;;;;5.00;1.80;;;;;;;7.75;63.09;101411.48;109181;1254;60008;-72
2023/04/27 07:12:46;;;;;;;5.90;2.00;;;;;;;7.81;61.93;101409.55;109291;1258;60874;-72
2023/04/27 07:15:13;;;;;;;5.60;2.10;;;;;;;7.93;61.90;101410.55;109120;1253;73567;-71
2023/04/27 07:17:40;;;;;;;6.10;2.40;;;;;;;8.11;61.90;101410.80;109364;1253;71077;-72
2023/04/27 07:20:08;;;;;;;6.00;2.70;;;;;;;8.29;61.77;101406.77;109357;1254;71713;-72
2023/04/27 07:22:35;;;;;;;8.50;2.60;;;;;;;8.42;61.32;101407.09;109335;1254;61165;-72
2023/04/27 07:25:03;;;;;;;5.20;2.20;;;;;;;8.60;60.74;101404.77;109353;1253;58954;-72
2023/04/27 07:27:30;;;;;;;5.60;1.80;;;;;;;8.71;58.44;101408.91;109234;1253;73858;-72
2023/04/27 07:29:57;;;;;;;3.70;1.50;;;;;;;8.70;58.63;101412.67;109409;1253;69463;-72
2023/04/27 07:32:25;;;;;;;4.80;1.80;;;;;;;8.79;57.26;101409.52;109222;1252;71676;-72
2023/04/27 07:34:54;;;;;;;3.60;1.80;;;;;;;8.97;57.48;101406.14;109361;1253;59354;-72
2023/04/27 07:37:21;;;;;;;4.30;2.00;;;;;;;9.19;56.82;101402.16;109249;1252;59077;-72
2023/04/27 07:39:49;;;;;;;5.00;1.90;;;;;;;9.41;56.97;101399.32;109253;1254;74694;-72
2023/04/27 07:42:16;;;;;;;3.60;1.50;;;;;;;9.52;55.34;101397.33;109383;1253;69464;-71
2023/04/27 07:44:43;;;;;;;7.20;1.70;;;;;;;9.45;53.72;101402.66;109194;1254;72385;-71
2023/04/27 07:47:10;;;;;;;3.30;1.50;;;;;;;9.30;53.32;101413.27;109267;1254;60242;-71
2023/04/27 07:49:37;;;;;;;5.00;1.60;;;;;;;9.30;54.76;101416.11;109405;1253;59057;-71
2023/04/27 07:52:04;;;;;;;4.10;1.50;;;;;;;9.35;54.06;101418.11;109240;1254;74540;-71
2023/04/27 07:54:31;;;;;;;5.50;1.60;;;;;;;9.48;53.86;101413.79;109207;1254;69856;-71
2023/04/27 07:56:57;;;;;;;6.70;1.90;;;;;;;9.64;54.01;101410.86;109177;1252;72576;-71
2023/04/27 07:59:27;;;;;;;3.70;1.20;;;;;;;9.74;52.07;101413.40;109150;1253;59092;-71
2023/04/27 08:01:54;;;;;;;4.70;1.30;;;;;;;9.68;50.39;101408.81;109241;1253;59026;-72
2023/04/27 08:04:41;;;;;;;2.50;1.10;;;;;;;9.56;49.30;101406.65;109263;1254;73071;-72
2023/04/27 08:07:09;;;;;;;4.30;1.40;;;;;;;9.60;50.04;101403.27;109393;1253;71309;-72
2023/04/27 08:09:36;;;;;;;3.60;1.40;;;;;;;9.78;50.51;101400.95;109098;1253;73329;-72
2023/04/27 08:12:03;;;;;;;4.00;1.20;;;;;;;10.04;50.95;101401.56;109139;1252;59217;-72
2023/04/27 08:14:32;;;;;;;3.30;1.30;;;;;;;10.23;49.83;101400.60;109161;1254;59384;-72
2023/04/27 08:16:59;;;;;;;4.70;1.20;;;;;;;10.32;48.67;101401.80;109352;1253;74414;-72
2023/04/27 08:19:26;;;;;;;3.20;1.10;;;;;;;10.44;49.06;101398.64;109247;1253;71214;-72
2023/04/27 08:21:53;;;;;;;4.70;1.30;;;;;;;10.59;48.02;101399.71;109093;1254;73179;-72
2023/04/27 08:24:20;;;;;;;2.90;1.20;;;;;;;10.79;47.81;101400.16;109218;1253;60386;-72
2023/04/27 08:26:47;;;;;;;3.50;1.30;;;;;;;10.91;47.18;101398.76;109254;1253;60364;-72
2023/04/27 08:29:14;;;;;;;3.80;1.30;;;;;;;10.98;45.81;101391.77;109359;1253;73360;-72
2023/04/27 08:31:53;;;;;;;3.60;1.10;;;;;;;11.06;45.15;101395.48;109252;1254;70977;-72
2023/04/27 08:34:22;;;;;;;3.50;1.20;;;;;;;11.20;45.97;101394.45;109353;1253;72870;-72
2023/04/27 08:36:49;;;;;;;3.10;1.20;;;;;;;11.47;45.72;101390.21;109229;1253;60473;-72
2023/04/27 08:39:16;;;;;;;5.40;1.60;;;;;;;11.69;45.58;101390.52;109318;1253;60643;-72
2023/04/27 08:41:43;;;;;;;5.30;1.60;;;;;;;11.96;45.22;101391.93;109174;1254;73501;-72
2023/04/27 08:44:10;;;;;;;4.80;1.50;;;;;;;12.11;43.94;101386.85;109183;1253;70148;-72
2023/04/27 08:46:38;;;;;;;4.00;1.20;;;;;;;12.29;43.62;101383.00;109115;1254;73058;-72
2023/04/27 08:49:06;;;;;;;4.00;1.30;;;;;;;12.33;41.68;101387.17;109147;1253;60087;-72
2023/04/27 08:51:34;;;;;;;3.50;1.20;;;;;;;12.35;41.29;101386.08;109128;1253;59222;-72
2023/04/27 08:54:01;;;;;;;3.90;1.20;;;;;;;12.29;40.90;101387.48;109408;1253;73575;-72
2023/04/27 08:56:29;;;;;;;3.30;1.00;;;;;;;12.24;40.91;101389.85;109233;1254;70851;-72
2023/04/27 08:58:56;;;;;;;3.30;1.30;;;;;;;12.21;40.57;101389.32;109210;1253;72659;-72
2023/04/27 09:01:26;;;;;;;2.50;1.10;;;;;;;12.28;40.84;101385.23;109232;1253;58975;-72
2023/04/27 09:04:00;;;;;;;4.80;1.40;;;;;;;12.30;40.45;101378.96;108980;1253;61350;-72
2023/04/27 09:06:33;;;;;;;3.90;1.40;;;;;;;12.41;40.97;101379.83;109385;1253;74645;-71
2023/04/27 09:09:01;;;;;;;5.20;1.40;;;;;;;12.37;41.18;101381.68;109285;1253;71533;-72
2023/04/27 09:11:37;;;;;;;4.10;1.10;;;;;;;12.45;41.64;101386.02;109231;1254;72741;-71
2023/04/27 09:14:21;;;;;;;3.30;1.00;;;;;;;12.16;41.51;101393.91;109269;1253;59081;-71
2023/04/27 09:16:58;;;;;;;2.90;1.20;;;;;;;11.78;40.99;101391.30;109384;1252;59955;-72
2023/04/27 09:19:27;;;;;;;6.20;1.30;;;;;;;11.49;41.39;101387.02;109021;1253;73665;-73
2023/04/27 09:22:10;;;;;;;3.10;1.30;;;;;;;11.21;41.37;101384.95;109392;1253;69776;-72
2023/04/27 09:24:37;;;;;;;4.80;1.00;;;;;;;10.99;41.56;101385.45;109381;1253;71474;-72
2023/04/27 09:27:05;;;;;;;4.30;1.30;;;;;;;11.11;42.09;101387.98;109351;1253;60150;-72
2023/04/27 09:29:36;;;;;;;5.30;1.30;;;;;;;11.41;42.35;101388.65;109179;1254;59020;-73
2023/04/27 09:32:15;;;;;;;2.10;1.00;;;;;;;11.68;41.26;101386.19;109382;1252;74392;-72
2023/04/27 09:34:43;;;;;;;3.40;1.00;;;;;;;11.94;40.97;101383.29;109301;1253;70174;-72
2023/04/27 09:37:10;;;;;;;4.30;1.50;;;;;;;12.11;40.12;101380.86;109389;1253;71637;-72
2023/04/27 09:39:37;;;;;;;4.70;1.10;;;;;;;12.25;39.94;101373.96;109050;1252;60259;-72
2023/04/27 09:42:04;;;;;;;3.70;1.20;;;;;;;12.45;40.42;101369.12;109359;1253;60285;-72
2023/04/27 09:44:31;;;;;;;4.50;1.20;;;;;;;12.69;40.42;101368.97;109364;1253;73173;-72
2023/04/27 09:46:59;;;;;;;3.80;1.20;;;;;;;12.92;39.76;101367.11;109199;1253;70945;-72
2023/04/27 09:49:28;;;;;;;4.20;1.40;;;;;;;12.97;38.99;101371.74;109262;1253;72838;-72
2023/04/27 09:51:57;;;;;;;3.40;1.20;;;;;;;12.76;38.81;101373.84;109328;1252;60715;-72
2023/04/27 09:54:28;;;;;;;2.40;1.00;;;;;;;12.36;38.91;101373.36;109345;1253;60343;-71
2023/04/27 09:57:19;;;;;;;5.10;1.80;;;;;;;12.01;39.59;101373.98;109255;1254;73143;-72
2023/04/27 10:00:09;;;;;;;3.40;1.30;;;;;;;11.90;40.12;101372.84;109359;1253;71541;-71
2023/04/27 10:02:48;;;;;;;4.20;1.30;;;;;;;12.20;40.37;101372.77;109291;1253;72284;-72
2023/04/27 10:05:25;;;;;;;5.70;1.20;;;;;;;12.58;38.85;101369.31;109329;1252;60154;-73
2023/04/27 10:07:52;;;;;;;2.80;1.20;;;;;;;12.85;37.96;101359.31;109394;1253;60060;-73
2023/04/27 10:10:19;;;;;;;3.80;1.20;;;;;;;13.02;36.46;101359.99;109169;1253;73700;-71
2023/04/27 10:13:01;;;;;;;3.00;1.10;;;;;;;13.17;37.09;101361.27;109414;1253;69072;-71
2023/04/27 10:15:28;;;;;;;3.30;1.00;;;;;;;13.41;36.73;101358.27;109282;1253;72390;-71
2023/04/27 10:18:02;;;;;;;3.70;1.10;;;;;;;13.67;36.04;101357.48;109113;1253;59566;-72
2023/04/27 10:20:31;;;;;;;4.90;1.40;;;;;;;13.81;35.69;101360.36;109189;1252;59059;-71
2023/04/27 10:22:59;;;;;;;3.50;1.10;;;;;;;13.90;35.44;101365.58;109236;1253;74111;-71
2023/04/27 10:25:28;;;;;;;3.60;1.20;;;;;;;13.85;35.17;101363.86;109195;1254;69143;-72
2023/04/27 10:27:57;;;;;;;2.90;1.10;;;;;;;13.64;35.75;101359.40;109283;1253;71222;-71
2023/04/27 10:30:36;;;;;;;6.40;1.20;;;;;;;13.53;36.01;101358.88;109241;1253;59004;-71
2023/04/27 10:33:08;;;;;;;4.40;1.20;;;;;;;13.35;36.44;101364.34;109242;1252;59099;-71
2023/04/27 10:35:37;;;;;;;4.70;1.20;;;;;;;13.24;36.24;101362.58;109223;1254;74794;-71
2023/04/27 10:38:13;;;;;;;3.60;1.10;;;;;;;13.39;36.50;101361.05;109203;1252;72285;-71
2023/04/27 10:40:42;;;;;;;3.70;1.10;;;;;;;13.57;35.78;101355.82;109220;1253;71201;-71
2023/04/27 10:43:14;;;;;;;3.80;1.40;;;;;;;13.79;35.78;101355.80;109316;1252;59573;-73
2023/04/27 10:45:42;;;;;;;3.10;1.50;;;;;;;14.10;34.90;101357.33;109133;1254;59450;-73
2023/04/27 10:48:13;;;;;;;3.10;1.20;;;;;;;14.35;35.15;101353.13;109258;1254;73128;-72
2023/04/27 10:50:41;;;;;;;3.20;1.30;;;;;;;14.63;35.13;101356.62;109270;1253;71189;-71
2023/04/27 10:53:07;;;;;;;3.80;1.20;;;;;;;14.78;34.75;101346.04;109179;1252;72520;-71
2023/04/27 10:55:35;;;;;;;4.00;1.30;;;;;;;14.64;33.45;101355.23;109200;1253;59064;-71
2023/04/27 10:58:03;;;;;;;2.60;1.20;;;;;;;14.44;33.11;101359.90;109151;1253;59365;-71
2023/04/27 11:00:36;;;;;;;3.90;1.40;;;;;;;14.13;33.50;101358.07;109240;1253;73444;-72
2023/04/27 11:03:15;;;;;;;4.20;1.20;;;;;;;14.02;34.34;101352.80;109104;1253;69811;-72
2023/04/27 11:05:44;;;;;;;5.50;1.30;;;;;;;13.97;34.97;101359.09;109229;1253;70701;-72
2023/04/27 11:08:13;;;;;;;3.80;1.30;;;;;;;13.84;35.23;101352.73;109324;1253;59209;-72
2023/04/27 11:10:43;;;;;;;4.10;1.40;;;;;;;13.85;35.23;101354.63;109190;1252;59409;-72
2023/04/27 11:13:11;;;;;;;3.20;1.10;;;;;;;13.91;34.31;101352.17;109353;1253;76044;-72
2023/04/27 11:15:53;;;;;;;2.20;1.10;;;;;;;13.86;33.93;101349.27;109280;1253;70108;-72
2023/04/27 11:18:21;;;;;;;3.70;1.50;;;;;;;13.84;33.52;101347.09;109193;1253;71506;-72
2023/04/27 11:20:49;;;;;;;3.70;1.30;;;;;;;13.72;33.58;101347.59;109150;1253;59157;-72
2023/04/27 11:23:35;;;;;;;4.00;1.30;;;;;;;13.75;34.25;101347.90;109041;1253;60118;-72